createdAt,value
2018-09-18T00:02:15.779Z,98749.10
2018-09-18T00:04:44.960Z,98745.50
2018-09-18T00:07:14.008Z,98747.78
2018-09-18T00:09:43.177Z,98747.70
2018-09-18T00:12:12.387Z,98737.03
2018-09-18T00:14:41.738Z,98740.16
2018-09-18T00:17:11.088Z,98735.72
2018-09-18T00:19:40.100Z,98727.36
2018-09-18T00:22:09.455Z,98734.75
2018-09-18T00:24:38.631Z,98737.13
2018-09-18T00:27:07.700Z,98735.79
2018-09-18T00:29:36.951Z,98733.32
2018-09-18T00:32:06.069Z,98737.16
2018-09-18T00:34:35.224Z,98742.33
2018-09-18T00:37:04.523Z,98743.11
2018-09-18T00:39:33.805Z,98739.20
2018-09-18T00:42:03.219Z,98736.92
2018-09-18T00:44:32.267Z,98743.33
2018-09-18T00:47:01.403Z,98745.22
2018-09-18T00:49:30.796Z,98741.58
2018-09-18T00:51:59.918Z,98739.92
2018-09-18T00:54:29.299Z,98741.27
2018-09-18T00:56:58.500Z,98740.18
2018-09-18T00:59:27.717Z,98742.22
2018-09-18T01:01:56.955Z,98739.55
2018-09-18T01:04:26.152Z,98742.68
2018-09-18T01:06:55.427Z,98739.12
2018-09-18T01:09:24.773Z,98741.98
2018-09-18T01:11:54.133Z,98741.30
2018-09-18T01:14:23.388Z,98737.80
2018-09-18T01:16:52.471Z,98737.34
2018-09-18T01:19:21.715Z,98732.47
2018-09-18T01:21:50.904Z,98737.21
2018-09-18T01:24:20.204Z,98733.19
2018-09-18T01:26:49.440Z,98728.19
2018-09-18T01:29:18.603Z,98730.41
2018-09-18T01:31:47.958Z,98732.27
2018-09-18T01:34:17.307Z,98730.76
2018-09-18T01:36:46.504Z,98724.43
2018-09-18T01:39:15.509Z,98722.54
2018-09-18T01:41:44.795Z,98728.19
2018-09-18T01:44:14.096Z,98721.93
2018-09-18T01:46:43.441Z,98731.06
2018-09-18T01:49:12.611Z,98727.50
2018-09-18T01:51:41.892Z,98721.40
2018-09-18T01:54:11.203Z,98724.84
2018-09-18T01:56:40.492Z,98730.91
2018-09-18T01:59:09.550Z,98728.67
2018-09-18T02:01:38.714Z,98737.68
2018-09-18T02:04:07.992Z,98741.83
2018-09-18T02:06:37.256Z,98734.48
2018-09-18T02:09:08.063Z,98741.19
2018-09-18T02:11:37.406Z,98737.02
2018-09-18T02:14:06.648Z,98743.31
2018-09-18T02:16:35.858Z,98745.81
2018-09-18T02:19:05.205Z,98741.95
2018-09-18T02:21:34.316Z,98744.52
2018-09-18T02:24:03.712Z,98743.66
2018-09-18T02:26:33.000Z,98742.67
2018-09-18T02:29:02.714Z,98744.19
2018-09-18T02:31:32.109Z,98751.91
2018-09-18T02:34:01.313Z,98749.14
2018-09-18T02:36:30.817Z,98751.64
2018-09-18T02:39:00.267Z,98748.36
2018-09-18T02:41:29.267Z,98748.47
2018-09-18T02:43:58.637Z,98750.99
2018-09-18T02:46:27.847Z,98747.60
2018-09-18T02:48:57.153Z,98754.14
2018-09-18T02:51:26.626Z,98749.66
2018-09-18T02:53:56.058Z,98747.16
2018-09-18T02:56:25.347Z,98744.52
2018-09-18T02:58:54.256Z,98746.09
2018-09-18T03:01:23.470Z,98745.38
2018-09-18T03:03:52.712Z,98742.14
2018-09-18T03:06:21.997Z,98744.45
2018-09-18T03:08:51.339Z,98744.63
2018-09-18T03:11:20.973Z,98748.53
2018-09-18T03:13:50.091Z,98741.77
2018-09-18T03:16:19.441Z,98752.57
2018-09-18T03:18:48.644Z,98743.52
2018-09-18T03:21:17.434Z,98747.09
2018-09-18T03:23:46.358Z,98745.66
2018-09-18T03:26:15.515Z,98745.49
2018-09-18T03:28:44.514Z,98746.67
2018-09-18T03:31:13.703Z,98744.41
2018-09-18T03:33:42.757Z,98740.66
2018-09-18T03:36:11.647Z,98749.26
2018-09-18T03:38:40.701Z,98750.34
2018-09-18T03:41:09.798Z,98753.09
2018-09-18T03:43:39.227Z,98755.34
2018-09-18T03:46:08.675Z,98761.22
2018-09-18T03:48:37.885Z,98761.94
2018-09-18T03:51:06.963Z,98764.58
2018-09-18T03:53:36.314Z,98765.77
2018-09-18T03:56:05.667Z,98768.05
2018-09-18T03:58:35.019Z,98768.42
2018-09-18T04:01:04.295Z,98772.32
2018-09-18T04:03:33.756Z,98774.98
2018-09-18T04:06:03.027Z,98772.92
2018-09-18T04:08:32.423Z,98766.94
2018-09-18T04:11:01.619Z,98775.66
2018-09-18T04:13:30.667Z,98771.50
2018-09-18T04:16:00.023Z,98773.63
2018-09-18T04:18:29.350Z,98766.44
2018-09-18T04:20:58.617Z,98773.98
2018-09-18T04:23:27.813Z,98778.11
2018-09-18T04:25:56.745Z,98774.84
2018-09-18T04:28:25.780Z,98771.80
2018-09-18T04:30:55.280Z,98783.02
2018-09-18T04:33:24.546Z,98784.14
2018-09-18T04:35:53.747Z,98785.24
2018-09-18T04:38:22.753Z,98783.36
2018-09-18T04:40:52.070Z,98788.40
2018-09-18T04:43:21.429Z,98783.31
2018-09-18T04:45:50.798Z,98786.86
2018-09-18T04:48:20.178Z,98791.92
2018-09-18T04:50:49.126Z,98798.80
2018-09-18T04:53:18.239Z,98801.33
2018-09-18T04:55:47.352Z,98801.05
2018-09-18T04:58:16.609Z,98802.73
2018-09-18T05:00:45.960Z,98802.52
2018-09-18T05:03:15.412Z,98799.00
2018-09-18T05:05:44.761Z,98800.13
2018-09-18T05:08:13.923Z,98799.31
2018-09-18T05:10:43.347Z,98795.45
2018-09-18T05:13:12.443Z,98803.70
2018-09-18T05:15:41.520Z,98796.91
2018-09-18T05:18:10.783Z,98802.14
2018-09-18T05:20:40.044Z,98800.54
2018-09-18T05:23:09.396Z,98800.54
2018-09-18T05:25:38.724Z,98800.30
2018-09-18T05:28:07.694Z,98799.57
2018-09-18T05:30:36.784Z,98799.22
2018-09-18T05:33:06.076Z,98796.70
2018-09-18T05:35:35.539Z,98796.30
2018-09-18T05:38:04.879Z,98791.33
2018-09-18T05:40:34.338Z,98800.81
2018-09-18T05:43:03.687Z,98804.45
2018-09-18T05:45:32.986Z,98801.53
2018-09-18T05:48:02.307Z,98801.98
2018-09-18T05:50:31.698Z,98801.38
2018-09-18T05:53:01.139Z,98802.28
2018-09-18T05:55:30.331Z,98791.39
2018-09-18T05:57:59.583Z,98801.42
2018-09-18T06:00:28.985Z,98802.84
2018-09-18T06:02:58.388Z,98799.88
2018-09-18T06:05:27.595Z,98795.94
2018-09-18T06:07:56.884Z,98798.21
2018-09-18T06:10:26.578Z,98796.88
2018-09-18T06:12:55.987Z,98806.02
2018-09-18T06:15:25.344Z,98804.33
2018-09-18T06:17:54.642Z,98805.50
2018-09-18T06:20:23.828Z,98816.14
2018-09-18T06:22:52.987Z,98817.48
2018-09-18T06:25:22.079Z,98812.44
2018-09-18T06:27:51.088Z,98815.80
2018-09-18T06:30:20.148Z,98810.86
2018-09-18T06:32:49.507Z,98811.53
2018-09-18T06:35:18.905Z,98811.69
2018-09-18T06:37:48.010Z,98804.55
2018-09-18T06:40:17.324Z,98817.92
2018-09-18T06:42:46.294Z,98817.81
2018-09-18T06:45:15.559Z,98815.33
2018-09-18T06:47:44.591Z,98812.28
2018-09-18T06:50:13.805Z,98813.95
2018-09-18T06:52:42.953Z,98818.27
2018-09-18T06:55:11.927Z,98821.25
2018-09-18T06:57:41.175Z,98824.66
2018-09-18T07:00:10.235Z,98825.98
2018-09-18T07:02:39.524Z,98823.43
2018-09-18T07:05:08.780Z,98824.57
2018-09-18T07:07:38.014Z,98828.80
2018-09-18T07:10:07.715Z,98822.34
2018-09-18T07:12:36.920Z,98821.85
2018-09-18T07:15:06.524Z,98821.23
2018-09-18T07:17:35.709Z,98821.09
2018-09-18T07:20:05.008Z,98819.78
2018-09-18T07:22:34.212Z,98824.31
2018-09-18T07:25:03.580Z,98823.70
2018-09-18T07:27:32.968Z,98830.34
2018-09-18T07:30:02.389Z,98820.44
2018-09-18T07:32:31.613Z,98822.20
2018-09-18T07:35:00.981Z,98822.67
2018-09-18T07:37:30.110Z,98827.70
2018-09-18T07:39:59.252Z,98812.77
2018-09-18T07:42:28.735Z,98817.09
2018-09-18T07:44:57.888Z,98817.56
2018-09-18T07:47:27.156Z,98816.41
2018-09-18T07:49:56.347Z,98819.70
2018-09-18T07:52:25.807Z,98817.38
2018-09-18T07:54:54.956Z,98817.86
2018-09-18T07:57:24.047Z,98817.27
2018-09-18T07:59:53.399Z,98816.66
2018-09-18T08:02:22.447Z,98816.78
2018-09-18T08:04:51.754Z,98824.59
2018-09-18T08:07:20.922Z,98821.08
2018-09-18T08:09:50.286Z,98817.39
2018-09-18T08:12:19.568Z,98813.13
2018-09-18T08:14:48.762Z,98816.85
2018-09-18T08:17:17.885Z,98812.52
2018-09-18T08:19:47.341Z,98814.45
2018-09-18T08:22:16.540Z,98806.66
2018-09-18T08:24:45.733Z,98811.31
2018-09-18T08:27:14.872Z,98811.78
2018-09-18T08:29:44.385Z,98809.55
2018-09-18T08:32:13.732Z,98808.70
2018-09-18T08:34:42.960Z,98801.89
2018-09-18T08:37:12.272Z,98800.53
2018-09-18T08:39:41.630Z,98802.35
2018-09-18T08:42:10.704Z,98801.27
2018-09-18T08:44:40.020Z,98796.01
2018-09-18T08:47:09.516Z,98796.13
2018-09-18T08:49:38.746Z,98797.08
2018-09-18T08:52:08.174Z,98800.84
2018-09-18T08:54:37.434Z,98793.09
2018-09-18T08:57:07.199Z,98789.89
2018-09-18T08:59:36.609Z,98789.76
2018-09-18T09:02:05.891Z,98784.80
2018-09-18T09:04:34.855Z,98787.08
2018-09-18T09:07:04.321Z,98781.84
2018-09-18T09:09:33.726Z,98783.03
2018-09-18T09:12:02.931Z,98781.95
2018-09-18T09:14:32.108Z,98779.00
2018-09-18T09:17:01.566Z,98789.64
2018-09-18T09:19:30.791Z,98783.92
2018-09-18T09:22:00.016Z,98785.89
2018-09-18T09:24:29.039Z,98777.87
2018-09-18T09:26:58.643Z,98773.72
2018-09-18T09:29:27.904Z,98770.66
2018-09-18T09:31:57.371Z,98766.89
2018-09-18T09:34:26.579Z,98765.10
2018-09-18T09:36:55.715Z,98765.83
2018-09-18T09:39:24.887Z,98770.12
2018-09-18T09:41:54.066Z,98760.42
2018-09-18T09:44:23.528Z,98755.02
2018-09-18T09:46:52.793Z,98763.81
2018-09-18T09:49:21.996Z,98757.09
2018-09-18T09:51:51.391Z,98763.24
2018-09-18T09:54:20.755Z,98757.53
2018-09-18T09:56:50.103Z,98752.63
2018-09-18T09:59:19.307Z,98748.56
2018-09-18T10:01:55.507Z,98744.45
2018-09-18T10:04:24.877Z,98742.23
2018-09-18T10:06:54.345Z,98735.86
2018-09-18T10:09:23.668Z,98741.31
2018-09-18T10:11:52.964Z,98740.63
2018-09-18T10:14:22.169Z,98741.88
2018-09-18T10:16:51.403Z,98741.76
2018-09-18T10:19:20.900Z,98737.16
2018-09-18T10:21:49.855Z,98742.67
2018-09-18T10:24:19.103Z,98737.30
2018-09-18T10:26:48.530Z,98732.49
2018-09-18T10:29:17.779Z,98730.83
2018-09-18T10:31:46.968Z,98730.92
2018-09-18T10:34:16.519Z,98725.56
2018-09-18T10:36:45.708Z,98723.00
2018-09-18T10:39:14.900Z,98720.35
2018-09-18T10:41:44.331Z,98723.98
2018-09-18T10:44:13.638Z,98716.88
2018-09-18T10:46:42.576Z,98719.33
2018-09-18T10:49:11.987Z,98715.88
2018-09-18T10:51:40.972Z,98708.14
2018-09-18T10:54:10.111Z,98704.39
2018-09-18T10:56:39.354Z,98700.70
2018-09-18T10:59:08.529Z,98696.44
2018-09-18T11:01:37.843Z,98699.55
2018-09-18T11:04:06.814Z,98690.92
2018-09-18T11:06:36.268Z,98692.66
2018-09-18T11:09:07.200Z,98682.60
2018-09-18T11:11:36.580Z,98677.11
2018-09-18T11:14:05.958Z,98682.55
2018-09-18T11:16:35.023Z,98677.95
2018-09-18T11:19:04.289Z,98667.13
2018-09-18T11:21:33.675Z,98669.89
2018-09-18T11:24:02.631Z,98657.17
2018-09-18T11:26:32.035Z,98657.79
2018-09-18T11:29:01.465Z,98665.13
2018-09-18T11:31:30.576Z,98652.56
2018-09-18T11:33:59.838Z,98651.06
2018-09-18T11:36:29.283Z,98649.09
2018-09-18T11:38:58.637Z,98655.36
2018-09-18T11:41:28.311Z,98647.92
2018-09-18T11:43:57.530Z,98643.95
2018-09-18T11:46:26.760Z,98637.67
2018-09-18T11:48:56.104Z,98640.66
2018-09-18T11:51:24.998Z,98634.92
2018-09-18T11:53:54.323Z,98625.20
2018-09-18T11:56:23.448Z,98630.71
2018-09-18T11:58:52.764Z,98630.09
2018-09-18T12:01:22.011Z,98621.75
2018-09-18T12:03:51.261Z,98625.33
2018-09-18T12:06:20.712Z,98617.16
2018-09-18T12:08:49.792Z,98613.85
2018-09-18T12:11:18.925Z,98612.52
2018-09-18T12:13:48.452Z,98605.94
2018-09-18T12:16:17.721Z,98599.20
2018-09-18T12:18:46.846Z,98588.94
2018-09-18T12:21:16.155Z,98595.61
2018-09-18T12:23:45.499Z,98589.89
2018-09-18T12:26:14.633Z,98589.35
2018-09-18T12:28:43.876Z,98589.83
2018-09-18T12:31:14.003Z,98578.72
2018-09-18T12:33:43.184Z,98581.69
2018-09-18T12:36:12.605Z,98575.61
2018-09-18T12:38:41.947Z,98574.14
2018-09-18T12:41:11.338Z,98567.81
2018-09-18T12:43:40.454Z,98572.28
2018-09-18T12:46:09.661Z,98565.48
2018-09-18T12:48:38.996Z,98568.64
2018-09-18T12:51:08.352Z,98567.08
2018-09-18T12:53:37.531Z,98557.95
2018-09-18T12:56:06.822Z,98561.02
2018-09-18T12:58:36.107Z,98561.45
2018-09-18T13:01:05.468Z,98552.64
2018-09-18T13:03:34.701Z,98541.75
2018-09-18T13:06:04.058Z,98544.03
2018-09-18T13:08:33.401Z,98549.98
2018-09-18T13:11:02.732Z,98542.20
2018-09-18T13:13:31.778Z,98550.58
2018-09-18T13:16:00.965Z,98548.17
2018-09-18T13:18:30.275Z,98533.93
2018-09-18T13:20:59.343Z,98544.63
2018-09-18T13:23:28.532Z,98539.84
2018-09-18T13:25:57.771Z,98531.53
2018-09-18T13:28:27.085Z,98528.14
2018-09-18T13:30:56.409Z,98521.92
2018-09-18T13:33:25.572Z,98521.53
2018-09-18T13:35:54.916Z,98521.05
2018-09-18T13:38:24.155Z,98519.98
2018-09-18T13:40:53.734Z,98510.62
2018-09-18T13:43:23.024Z,98505.38
2018-09-18T13:45:52.037Z,98502.75
2018-09-18T13:48:21.295Z,98504.45
2018-09-18T13:50:50.675Z,98507.43
2018-09-18T13:53:20.047Z,98505.76
2018-09-18T13:55:49.399Z,98502.03
2018-09-18T13:58:18.755Z,98499.45
2018-09-18T14:00:47.750Z,98491.33
2018-09-18T14:03:17.050Z,98490.63
2018-09-18T14:05:46.194Z,98489.80
2018-09-18T14:08:15.255Z,98492.98
2018-09-18T14:10:44.595Z,98488.87
2018-09-18T14:13:13.840Z,98493.54
2018-09-18T14:15:42.940Z,98485.92
2018-09-18T14:18:12.189Z,98485.71
2018-09-18T14:20:41.431Z,98490.05
2018-09-18T14:23:10.715Z,98492.15
2018-09-18T14:25:40.071Z,98493.23
2018-09-18T14:28:09.591Z,98493.66
2018-09-18T14:30:38.930Z,98493.17
2018-09-18T14:33:08.392Z,98493.36
2018-09-18T14:35:37.556Z,98492.03
2018-09-18T14:38:06.983Z,98491.50
2018-09-18T14:40:36.419Z,98498.33
2018-09-18T14:43:05.525Z,98489.73
2018-09-18T14:45:34.863Z,98490.52
2018-09-18T14:48:04.241Z,98494.41
2018-09-18T14:50:33.573Z,98493.02
2018-09-18T14:53:02.512Z,98491.24
2018-09-18T14:55:31.673Z,98494.86
2018-09-18T14:58:01.378Z,98491.53
2018-09-18T15:00:30.667Z,98492.06
2018-09-18T15:02:59.733Z,98488.50
2018-09-18T15:05:29.180Z,98494.66
2018-09-18T15:07:58.344Z,98491.87
2018-09-18T15:10:27.629Z,98496.43
2018-09-18T15:12:56.847Z,98497.57
2018-09-18T15:15:25.919Z,98493.87
2018-09-18T15:17:55.452Z,98492.70
2018-09-18T15:20:24.754Z,98492.25
2018-09-18T15:22:53.700Z,98492.78
2018-09-18T15:25:22.899Z,98494.40
2018-09-18T15:27:52.188Z,98492.56
2018-09-18T15:30:21.585Z,98491.70
2018-09-18T15:32:50.833Z,98492.80
2018-09-18T15:35:20.027Z,98492.48
2018-09-18T15:37:49.370Z,98491.88
2018-09-18T15:40:18.624Z,98496.08
2018-09-18T15:42:48.134Z,98490.24
2018-09-18T15:45:17.640Z,98490.40
2018-09-18T15:47:46.907Z,98494.83
2018-09-18T15:50:16.144Z,98500.02
2018-09-18T15:52:45.488Z,98494.41
2018-09-18T15:55:14.995Z,98501.78
2018-09-18T15:57:44.306Z,98500.59
2018-09-18T16:00:13.364Z,98503.80
2018-09-18T16:02:42.684Z,98499.47
2018-09-18T16:05:11.693Z,98504.33
2018-09-18T16:07:41.105Z,98506.43
2018-09-18T16:10:10.556Z,98511.27
2018-09-18T16:12:39.592Z,98511.53
2018-09-18T16:15:08.785Z,98503.37
2018-09-18T16:17:38.122Z,98509.09
2018-09-18T16:20:07.468Z,98507.83
2018-09-18T16:22:36.874Z,98510.19
2018-09-18T16:25:06.268Z,98507.34
2018-09-18T16:27:35.254Z,98508.01
2018-09-18T16:30:04.545Z,98510.21
2018-09-18T16:32:33.973Z,98513.09
2018-09-18T16:35:03.383Z,98516.82
2018-09-18T16:37:32.787Z,98515.61
2018-09-18T16:40:02.034Z,98519.59
2018-09-18T16:42:30.928Z,98514.39
2018-09-18T16:45:00.205Z,98516.93
2018-09-18T16:47:29.122Z,98517.11
2018-09-18T16:49:58.616Z,98519.97
2018-09-18T16:52:27.984Z,98523.13
2018-09-18T16:54:57.483Z,98516.61
2018-09-18T16:57:26.615Z,98511.55
2018-09-18T16:59:56.004Z,98515.18
2018-09-18T17:02:25.593Z,98520.80
2018-09-18T17:04:54.742Z,98519.75
2018-09-18T17:07:23.964Z,98514.75
2018-09-18T17:09:53.357Z,98520.52
2018-09-18T17:12:22.539Z,98528.17
2018-09-18T17:14:51.857Z,98528.21
2018-09-18T17:17:21.182Z,98527.66
2018-09-18T17:19:50.777Z,98531.52
2018-09-18T17:22:20.125Z,98531.34
2018-09-18T17:24:49.455Z,98529.12
2018-09-18T17:27:18.995Z,98532.94
2018-09-18T17:29:48.019Z,98530.39
2018-09-18T17:32:17.549Z,98531.91
2018-09-18T17:34:46.952Z,98539.34
2018-09-18T17:37:16.219Z,98540.79
2018-09-18T17:39:45.624Z,98542.23
2018-09-18T17:42:14.590Z,98544.16
2018-09-18T17:44:43.895Z,98552.09
2018-09-18T17:47:13.410Z,98551.87
2018-09-18T17:49:43.541Z,98557.50
2018-09-18T17:52:12.513Z,98573.46
2018-09-18T17:54:41.871Z,98572.80
2018-09-18T17:57:11.104Z,98571.58
2018-09-18T17:59:40.567Z,98571.13
2018-09-18T18:02:10.320Z,98569.42
2018-09-18T18:04:39.701Z,98575.65
2018-09-18T18:07:09.166Z,98575.52
2018-09-18T18:09:39.161Z,98578.87
2018-09-18T18:12:08.538Z,98580.52
2018-09-18T18:14:37.721Z,98581.73
2018-09-18T18:17:08.001Z,98584.53
2018-09-18T18:19:36.917Z,98581.22
2018-09-18T18:22:06.761Z,98586.69
2018-09-18T18:24:35.995Z,98591.87
2018-09-18T18:27:06.333Z,98591.56
2018-09-18T18:29:36.059Z,98591.87
2018-09-18T18:32:05.708Z,98591.09
2018-09-18T18:34:35.197Z,98596.06
2018-09-18T18:37:04.399Z,98595.58
2018-09-18T18:39:34.058Z,98590.09
2018-09-18T18:42:03.173Z,98593.58
2018-09-18T18:44:33.483Z,98595.48
2018-09-18T18:47:04.188Z,98594.19
2018-09-18T18:49:38.149Z,98600.87
2018-09-18T18:52:07.668Z,98601.23
2018-09-18T18:54:42.101Z,98605.44
2018-09-18T18:57:12.183Z,98604.30
2018-09-18T18:59:43.043Z,98605.80
2018-09-18T19:02:11.948Z,98608.88
2018-09-18T19:04:41.468Z,98608.97
2018-09-18T19:07:11.654Z,98619.92
2018-09-18T19:09:40.925Z,98623.05
2018-09-18T19:12:10.805Z,98629.62
2018-09-18T19:14:40.988Z,98633.23
2018-09-18T19:17:11.237Z,98634.39
2018-09-18T19:19:40.676Z,98628.86
2018-09-18T19:22:09.934Z,98632.75
2018-09-18T19:24:39.168Z,98633.42
2018-09-18T19:27:08.302Z,98635.45
2018-09-18T19:29:37.415Z,98635.13
2018-09-18T19:32:06.601Z,98636.19
2018-09-18T19:34:36.598Z,98635.44
2018-09-18T19:37:06.167Z,98632.02
2018-09-18T19:39:35.877Z,98635.44
2018-09-18T19:42:05.207Z,98642.84
2018-09-18T19:44:35.239Z,98650.16
2018-09-18T19:47:04.608Z,98641.80
2018-09-18T19:49:35.628Z,98643.66
2018-09-18T19:52:04.646Z,98643.69
2018-09-18T19:54:33.981Z,98642.62
2018-09-18T19:57:03.368Z,98643.39
2018-09-18T19:59:32.763Z,98645.14
2018-09-18T20:02:02.271Z,98644.95
2018-09-18T20:04:31.593Z,98651.14
2018-09-18T20:07:00.919Z,98649.12
2018-09-18T20:09:30.032Z,98647.56
2018-09-18T20:11:59.009Z,98650.48
2018-09-18T20:14:28.307Z,98653.61
2018-09-18T20:16:57.512Z,98651.41
2018-09-18T20:19:26.720Z,98653.70
2018-09-18T20:21:56.058Z,98659.02
2018-09-18T20:24:25.444Z,98666.91
2018-09-18T20:26:54.864Z,98666.59
2018-09-18T20:29:24.000Z,98674.28
2018-09-18T20:31:53.260Z,98676.77
2018-09-18T20:34:22.807Z,98679.10
2018-09-18T20:36:52.531Z,98676.30
2018-09-18T20:39:21.760Z,98681.33
2018-09-18T20:41:51.013Z,98689.48
2018-09-18T20:44:19.946Z,98685.34
2018-09-18T20:46:49.296Z,98689.48
2018-09-18T20:49:18.552Z,98690.27
2018-09-18T20:51:47.733Z,98692.31
2018-09-18T20:54:16.939Z,98689.37
2018-09-18T20:56:46.146Z,98700.20
2018-09-18T20:59:15.154Z,98696.16
2018-09-18T21:01:44.335Z,98700.77
2018-09-18T21:04:13.730Z,98700.79
2018-09-18T21:06:43.032Z,98700.79
2018-09-18T21:09:12.167Z,98698.98
2018-09-18T21:11:41.483Z,98697.09
2018-09-18T21:14:10.982Z,98702.33
2018-09-18T21:16:40.162Z,98698.27
2018-09-18T21:19:09.427Z,98700.30
2018-09-18T21:21:38.718Z,98699.14
2018-09-18T21:24:08.072Z,98701.26
2018-09-18T21:26:37.307Z,98698.77
2018-09-18T21:29:06.496Z,98706.81
2018-09-18T21:31:35.396Z,98703.91
2018-09-18T21:34:04.436Z,98712.18
2018-09-18T21:36:33.799Z,98714.38
2018-09-18T21:39:03.267Z,98712.42
2018-09-18T21:41:32.443Z,98716.16
2018-09-18T21:44:01.648Z,98717.82
2018-09-18T21:46:30.994Z,98718.82
2018-09-18T21:49:00.339Z,98724.38
2018-09-18T21:51:29.800Z,98722.27
2018-09-18T21:53:59.106Z,98720.70
2018-09-18T21:56:28.411Z,98720.62
2018-09-18T21:58:57.784Z,98722.02
2018-09-18T22:01:27.235Z,98727.28
2018-09-18T22:03:56.541Z,98725.42
2018-09-18T22:06:25.863Z,98726.45
2018-09-18T22:08:54.893Z,98721.91
2018-09-18T22:11:24.107Z,98726.73
2018-09-18T22:13:53.559Z,98735.11
2018-09-18T22:16:22.561Z,98734.85
2018-09-18T22:18:52.080Z,98737.34
2018-09-18T22:21:21.292Z,98729.77
2018-09-18T22:23:50.529Z,98730.45
2018-09-18T22:26:19.823Z,98731.45
2018-09-18T22:28:49.178Z,98729.33
2018-09-18T22:31:18.363Z,98733.46
2018-09-18T22:33:47.674Z,98736.19
2018-09-18T22:36:16.912Z,98732.97
2018-09-18T22:38:46.381Z,98735.28
2018-09-18T22:41:15.344Z,98733.09
2018-09-18T22:43:44.566Z,98737.29
2018-09-18T22:46:13.851Z,98744.30
2018-09-18T22:48:43.071Z,98746.12
2018-09-18T22:51:12.354Z,98749.22
2018-09-18T22:53:41.603Z,98746.95
2018-09-18T22:56:10.948Z,98748.35
2018-09-18T22:58:40.165Z,98748.12
2018-09-18T23:01:09.400Z,98751.73
2018-09-18T23:03:38.595Z,98748.96
2018-09-18T23:06:07.946Z,98744.86
2018-09-18T23:08:37.197Z,98750.17
2018-09-18T23:11:06.748Z,98746.34
2018-09-18T23:13:35.758Z,98745.44
2018-09-18T23:16:04.755Z,98749.66
2018-09-18T23:18:34.004Z,98750.41
2018-09-18T23:21:03.442Z,98743.31
2018-09-18T23:23:32.940Z,98743.61
2018-09-18T23:26:01.773Z,98749.30
2018-09-18T23:28:31.194Z,98750.23
2018-09-18T23:31:00.249Z,98752.36
2018-09-18T23:33:29.675Z,98761.09
2018-09-18T23:35:58.984Z,98757.38
2018-09-18T23:38:28.226Z,98762.67
2018-09-18T23:40:57.471Z,98766.82
2018-09-18T23:43:26.731Z,98760.67
2018-09-18T23:45:56.023Z,98762.16
2018-09-18T23:48:25.209Z,98758.94
2018-09-18T23:50:54.169Z,98764.61
2018-09-18T23:53:23.155Z,98762.61
2018-09-18T23:55:52.343Z,98760.75
2018-09-18T23:58:21.618Z,98769.02
